Latest Coastal Weather Observations for Lake Macquarie - Cooranbong

IDN60701

Issued at 11:51 pm EST Sunday 30 August 2015 (issued every 10 minutes, with the page automatically refreshed every 10 minutes)

About coastal observations | Map of coastal stations | Coastal observations for NSW | Marine services | Other Formats
Station Details ID: 061412 Name: LAKE MACQUARIE AWS Lat: -33.09 Lon: 151.46 Height: 6.0 m
Data from the previous 72 hours. | See also: Recent months at Lake Macquarie - Cooranbong
Date/Time
EST
Temp

°C
Wind Pressure Rain
since 9am
mm
Weather Cloud Vis
km
Sea
Height
m
Swell
Dir
 
Speed
knots
Gust
knots
hPa Trend Height
m
Period
s
Dir
30/11:30pm 6.3 CALM 0 0 1018.4 - 0.0 - - - - - - -
30/11:00pm 6.8 CALM 0 0 1018.6 - 0.0 - - - - - - -
30/10:30pm 7.0 CALM 0 0 1018.7 - 0.0 - - - - - - -
30/10:00pm 7.3 CALM 0 0 1018.8 - 0.0 - - - - - - -
30/09:30pm 7.6 CALM 0 0 1018.8 - 0.0 - - - - - - -
30/09:00pm 7.7 CALM 0 0 1018.8 - 0.0 - - - - - - -
30/08:30pm 8.1 CALM 0 0 1018.8 - 0.0 - - - - - - -
30/08:00pm 8.7 CALM 0 0 1018.7 - 0.0 - - - - - - -
30/07:30pm 9.3 CALM 0 0 1018.7 - 0.0 - - - - - - -
30/07:00pm 9.8 CALM 0 0 1018.6 - 0.0 - - - - - - -
30/06:30pm 10.9 CALM 0 0 1018.2 - 0.0 - - - - - - -
30/06:00pm 12.3 CALM 0 0 1018.0 - 0.0 - - - - - - -
30/05:30pm 14.4 SSE 2 4 1017.8 - 0.0 - - - - - - -
30/05:00pm 15.3 S 3 7 1017.5 - 0.0 - - - - - - -
30/04:30pm 16.0 SSE 4 7 1017.3 - 0.0 - - - - - - -
30/04:00pm 16.5 SE 5 9 1017.2 - 0.0 - - - - - - -
30/03:30pm 16.4 SE 5 10 1017.2 - 0.0 - - - - - - -
30/03:00pm 16.5 S 4 8 1017.3 - 0.0 - - - - - - -
30/02:30pm 17.4 SSE 4 9 1017.3 - 0.0 - - - - - - -
30/02:00pm 17.0 SSE 5 9 1017.5 - 0.0 - - - - - - -
30/01:30pm 18.7 ESE 3 5 1017.5 - 0.0 - - - - - - -
30/01:00pm 18.0 SSE 3 6 1017.9 - 0.0 - - - - - - -
30/12:30pm 17.6 W 3 6 1018.4 - 0.0 - - - - - - -
30/12:00pm 17.6 SSE 4 9 1018.8 - 0.0 - - - - - - -
30/11:30am 17.0 SSW 3 6 1019.3 - 0.0 - - - - - - -
30/11:00am 16.2 WSW 4 8 1019.9 - 0.0 - - - - - - -
30/10:30am 15.8 SW 4 8 1020.1 - 0.0 - - - - - - -
30/10:00am 15.1 WSW 4 8 1020.2 - 0.0 - - - - - - -
30/09:30am 14.1 SW 5 11 1020.2 - 0.0 - - - - - - -
30/09:00am 13.9 SW 4 7 1020.2 - 0.0 - - - - - - -
30/08:30am 12.4 SW 4 8 1020.2 - 0.0 - - - - - - -
30/08:00am 8.7 CALM 0 0 1020.3 - 0.0 - - - - - - -
30/07:30am 5.3 CALM 0 0 1020.2 - 0.0 - - - - - - -
30/07:00am 3.3 CALM 0 0 1020.1 - 0.0 - - - - - - -
30/06:30am 2.6 CALM 0 0 1019.9 - 0.0 - - - - - - -
30/06:00am 2.8 CALM 0 0 1019.6 - 0.0 - - - - - - -
30/05:30am 2.9 CALM 0 0 1019.3 - 0.0 - - - - - - -
30/05:00am 3.3 CALM 0 0 1019.2 - 0.0 - - - - - - -
30/04:30am 3.4 CALM 0 0 1019.2 - 0.0 - - - - - - -
30/04:00am 4.0 CALM 0 0 1019.2 - 0.0 - - - - - - -
30/03:30am 4.2 CALM 0 0 1019.3 - 0.0 - - - - - - -
30/03:00am 4.7 CALM 0 0 1019.4 - 0.0 - - - - - - -
30/02:30am 5.1 CALM 0 0 1019.5 - 0.0 - - - - - - -
30/02:00am 5.2 CALM 0 0 1019.8 - 0.0 - - - - - - -
30/01:30am 5.7 CALM 0 0 1020.2 - 0.0 - - - - - - -
30/01:00am 5.8 CALM 0 0 1020.5 - 0.0 - - - - - - -
30/12:30am 6.5 CALM 0 0 1020.6 - 0.0 - - - - - - -
30/12:00am 6.3 CALM 0 0 1020.6 - 0.0 - - - - - - -
 
Date/Time
EST
Temp

°C
Wind Pressure Rain
since 9am
mm
Weather Cloud Vis
km
Sea
Height
m
Swell
Dir
 
Speed
knots
Gust
knots
hPa Trend Height
m
Period
s
Dir
29/11:30pm 6.3 CALM 0 0 1020.7 - 0.0 - - - - - - -
29/11:00pm 7.1 CALM 0 0 1020.5 - 0.0 - - - - - - -
29/10:30pm 7.3 CALM 0 0 1020.5 - 0.0 - - - - - - -
29/10:00pm 7.9 CALM 0 0 1020.6 - 0.0 - - - - - - -
29/09:30pm 8.4 CALM 0 3 1020.8 - 0.0 - - - - - - -
29/09:00pm 8.9 CALM 0 0 1020.7 - 0.0 - - - - - - -
29/08:30pm 9.3 CALM 0 0 1020.3 - 0.0 - - - - - - -
29/08:00pm 10.0 CALM 0 0 1020.0 - 0.0 - - - - - - -
29/07:30pm 10.5 N 1 2 1019.5 - 0.0 - - - - - - -
29/07:00pm 11.3 CALM 0 0 1019.3 - 0.0 - - - - - - -
29/06:30pm 12.3 CALM 0 0 1018.8 - 0.0 - - - - - - -
29/06:00pm 13.8 CALM 0 0 1018.5 - 0.0 - - - - - - -
29/05:30pm 15.7 CALM 0 2 1018.2 - 0.0 - - - - - - -
29/05:00pm 17.0 ESE 4 6 1018.0 - 0.0 - - - - - - -
29/04:30pm 17.9 SE 4 8 1017.7 - 0.0 - - - - - - -
29/04:00pm 20.7 W 3 5 1017.6 - 0.0 - - - - - - -
29/03:30pm 20.8 W 5 11 1017.7 - 0.0 - - - - - - -
29/03:00pm 20.6 W 7 14 1017.9 - 0.0 - - - - - - -
29/02:30pm 20.3 W 4 7 1018.1 - 0.0 - - - - - - -
29/02:00pm 19.9 W 3 6 1018.5 - 0.0 - - - - - - -
29/01:30pm 19.8 NNW 6 10 1018.9 - 0.0 - - - - - - -
29/01:00pm 19.6 WNW 5 11 1019.3 - 0.0 - - - - - - -
29/12:30pm 18.9 NW 5 10 1019.8 - 0.0 - - - - - - -
29/12:00pm 18.3 NNW 5 8 1020.4 - 0.0 - - - - - - -
29/11:30am 17.4 N 7 11 1021.1 - 0.0 - - - - - - -
29/11:00am 17.9 NNW 5 9 1021.7 - 0.0 - - - - - - -
29/10:30am 17.5 WNW 5 10 1022.1 - 0.0 - - - - - - -
29/10:00am 16.2 N 4 7 1022.4 - 0.0 - - - - - - -
29/09:30am 16.0 NNE 2 3 1022.8 - 0.0 - - - - - - -
29/09:00am 13.7 CALM 0 0 1023.1 - 0.0 - - - - - - -
29/08:30am 12.4 CALM 0 1 1023.3 - 0.0 - - - - - - -
29/08:00am 9.5 CALM 0 0 1023.3 - 0.0 - - - - - - -
29/07:30am 7.0 CALM 0 0 1023.2 - 0.0 - - - - - - -
29/07:00am 4.5 CALM 0 0 1023.2 - 0.0 - - - - - - -
29/06:30am 4.5 CALM 0 0 1023.0 - 0.0 - - - - - - -
29/06:00am 4.6 CALM 0 0 1022.8 - 0.0 - - - - - - -
29/05:30am 4.8 CALM 0 0 1022.7 - 0.0 - - - - - - -
29/05:00am 4.8 CALM 0 0 1022.5 - 0.0 - - - - - - -
29/04:30am 5.5 CALM 0 0 1022.3 - 0.0 - - - - - - -
29/04:00am 5.8 CALM 0 0 1022.1 - 0.0 - - - - - - -
29/03:30am 6.2 CALM 0 0 1022.1 - 0.0 - - - - - - -
29/03:00am 6.2 CALM 0 0 1022.3 - 0.0 - - - - - - -
29/02:30am 6.6 CALM 0 0 1022.5 - 0.0 - - - - - - -
29/02:00am 6.9 CALM 0 0 1022.8 - 0.0 - - - - - - -
29/01:30am 7.5 CALM 0 0 1022.8 - 0.0 - - - - - - -
29/01:00am 7.8 CALM 0 0 1022.9 - 0.0 - - - - - - -
29/12:30am 8.1 CALM 0 0 1023.0 - 0.0 - - - - - - -
29/12:00am 8.5 CALM 0 0 1023.0 - 0.0 - - - - - - -
 
Date/Time
EST
Temp

°C
Wind Pressure Rain
since 9am
mm
Weather Cloud Vis
km
Sea
Height
m
Swell
Dir
 
Speed
knots
Gust
knots
hPa Trend Height
m
Period
s
Dir
28/11:30pm 9.1 CALM 0 0 1023.1 - 0.0 - - - - - - -
28/11:00pm 9.5 CALM 0 0 1023.1 - 0.0 - - - - - - -
28/10:30pm 10.2 CALM 0 0 1023.0 - 0.0 - - - - - - -
28/10:00pm 10.8 CALM 0 0 1023.1 - 0.0 - - - - - - -
28/09:30pm 11.2 CALM 0 0 1023.1 - 0.0 - - - - - - -
28/09:00pm 11.4 CALM 0 0 1022.9 - 0.0 - - - - - - -
28/08:30pm 11.5 CALM 0 0 1022.7 - 0.0 - - - - - - -
28/08:00pm 12.2 CALM 0 1 1022.3 - 0.0 - - - - - - -
28/07:30pm 12.8 N 2 2 1022.0 - 0.0 - - - - - - -
28/07:00pm 13.4 CALM 0 0 1021.7 - 0.0 - - - - - - -
28/06:30pm 14.1 CALM 0 0 1021.3 - 0.0 - - - - - - -
28/06:00pm 14.8 CALM 0 0 1020.9 - 0.0 - - - - - - -
28/05:30pm 15.5 S 1 2 1020.7 - 0.0 - - - - - - -
28/05:00pm 16.3 CALM 0 0 1020.4 - 0.0 - - - - - - -
28/04:30pm 17.8 WSW 1 2 1020.1 - 0.0 - - - - - - -
28/04:00pm 19.5 W 3 6 1019.8 - 0.0 - - - - - - -
28/03:30pm 18.7 W 3 6 1019.6 - 0.0 - - - - - - -
28/03:00pm 19.2 WSW 3 6 1019.4 - 0.0 - - - - - - -
28/02:30pm 19.1 WSW 3 5 1019.3 - 0.0 - - - - - - -
28/02:00pm 19.2 W 5 11 1019.2 - 0.0 - - - - - - -
28/01:30pm 19.2 W 3 5 1019.2 - 0.0 - - - - - - -
28/01:00pm 18.6 W 5 9 1019.5 - 0.0 - - - - - - -
28/12:30pm 19.2 W 7 12 1019.9 - 0.0 - - - - - - -
28/12:00pm 17.4 WSW 7 14 1020.3 - 0.0 - - - - - - -
28/11:30am 18.1 W 8 14 1020.5 - 0.0 - - - - - - -
28/11:00am 17.7 W 5 10 1020.7 - 0.0 - - - - - - -
28/10:30am 16.8 W 7 19 1020.9 - 0.0 - - - - - - -
28/10:00am 16.0 W 7 14 1020.7 - 0.0 - - - - - - -
28/09:30am 15.5 NW 6 11 1020.6 - 0.0 - - - - - - -
28/09:00am 14.9 NW 6 9 1020.6 - 0.0 - - - - - - -
28/08:30am 14.1 NW 6 14 1020.5 - 0.0 - - - - - - -
28/08:00am 13.4 NNW 7 14 1020.2 - 0.0 - - - - - - -
28/07:30am 12.5 NNW 6 13 1019.8 - 0.0 - - - - - - -
28/07:00am 11.3 NNW 4 10 1019.6 - 0.0 - - - - - - -
28/06:30am 11.3 NW 5 10 1019.3 - 0.0 - - - - - - -
28/06:00am 10.7 NW 3 7 1018.9 - 0.0 - - - - - - -
28/05:30am 11.2 NW 3 5 1018.6 - 0.0 - - - - - - -
28/05:00am 11.0 NW 3 8 1018.3 - 0.0 - - - - - - -
28/04:30am 10.9 NW 3 5 1018.2 - 0.0 - - - - - - -
28/04:00am 11.6 NW 4 8 1018.1 - 0.0 - - - - - - -
28/03:30am 10.1 NW 4 7 1018.1 - 0.0 - - - - - - -
28/03:00am 10.7 NNW 2 3 1018.2 - 0.0 - - - - - - -
28/02:30am 10.6 NNW 4 7 1018.3 - 0.0 - - - - - - -
28/02:00am 7.6 CALM 0 0 1018.8 - 0.0 - - - - - - -
28/01:30am 7.7 CALM 0 0 1019.0 - 0.0 - - - - - - -
28/01:00am 8.1 CALM 0 0 1019.2 - 0.0 - - - - - - -
28/12:30am 8.4 CALM 0 0 1019.1 - 0.0 - - - - - - -
28/12:00am 9.1 CALM 0 0 1019.0 - 0.0 - - - - - - -

Other Formats:

Comma delimited format used in spreadsheet applications
http://www.bom.gov.au/fwo/IDN60701/IDN60701.95767.axf

JavaScript Object Notation format (JSON) in row-major order
http://www.bom.gov.au/fwo/IDN60701/IDN60701.95767.json